sensor_id;sensor_type;location;lat;lon;timestamp;P1;durP1;ratioP1;P2;durP2;ratioP2
52266;SDS011;38223;50.940;4.034;2023-03-24T00:01:26;2.40;;;1.50;;
52266;SDS011;38223;50.940;4.034;2023-03-24T00:04:02;3.40;;;1.98;;
52266;SDS011;38223;50.940;4.034;2023-03-24T00:06:32;2.42;;;1.98;;
52266;SDS011;38223;50.940;4.034;2023-03-24T00:09:10;4.65;;;2.00;;
52266;SDS011;38223;50.940;4.034;2023-03-24T00:11:46;3.15;;;1.70;;
52266;SDS011;38223;50.940;4.034;2023-03-24T00:14:24;6.75;;;2.50;;
52266;SDS011;38223;50.940;4.034;2023-03-24T00:16:57;3.77;;;1.98;;
52266;SDS011;38223;50.940;4.034;2023-03-24T00:19:34;2.33;;;1.82;;
52266;SDS011;38223;50.940;4.034;2023-03-24T00:22:18;2.95;;;1.98;;
52266;SDS011;38223;50.940;4.034;2023-03-24T00:24:53;4.58;;;2.17;;
52266;SDS011;38223;50.940;4.034;2023-03-24T00:27:25;2.17;;;1.67;;
52266;SDS011;38223;50.940;4.034;2023-03-24T00:30:00;3.22;;;2.00;;
52266;SDS011;38223;50.940;4.034;2023-03-24T00:32:30;3.60;;;1.90;;
52266;SDS011;38223;50.940;4.034;2023-03-24T00:35:08;3.65;;;1.77;;
52266;SDS011;38223;50.940;4.034;2023-03-24T00:37:43;2.98;;;2.10;;
52266;SDS011;38223;50.940;4.034;2023-03-24T00:40:16;3.52;;;2.33;;
52266;SDS011;38223;50.940;4.034;2023-03-24T00:42:48;2.27;;;2.00;;
52266;SDS011;38223;50.940;4.034;2023-03-24T00:45:19;2.92;;;1.85;;
52266;SDS011;38223;50.940;4.034;2023-03-24T00:47:57;2.25;;;1.92;;
52266;SDS011;38223;50.940;4.034;2023-03-24T00:50:35;3.12;;;2.00;;
52266;SDS011;38223;50.940;4.034;2023-03-24T00:53:10;2.60;;;1.90;;
52266;SDS011;38223;50.940;4.034;2023-03-24T00:55:44;2.25;;;1.90;;
52266;SDS011;38223;50.940;4.034;2023-03-24T00:58:19;3.90;;;1.87;;
52266;SDS011;38223;50.940;4.034;2023-03-24T01:00:52;3.35;;;2.05;;
52266;SDS011;38223;50.940;4.034;2023-03-24T01:03:28;3.83;;;1.85;;
52266;SDS011;38223;50.940;4.034;2023-03-24T01:06:03;2.45;;;1.70;;
52266;SDS011;38223;50.940;4.034;2023-03-24T01:08:39;2.30;;;1.80;;
52266;SDS011;38223;50.940;4.034;2023-03-24T01:11:12;3.00;;;1.90;;
52266;SDS011;38223;50.940;4.034;2023-03-24T01:13:42;3.12;;;1.85;;
52266;SDS011;38223;50.940;4.034;2023-03-24T01:16:21;2.10;;;1.75;;
52266;SDS011;38223;50.940;4.034;2023-03-24T01:18:55;3.30;;;1.82;;
52266;SDS011;38223;50.940;4.034;2023-03-24T01:21:31;1.70;;;1.50;;
52266;SDS011;38223;50.940;4.034;2023-03-24T01:24:11;2.33;;;1.80;;
52266;SDS011;38223;50.940;4.034;2023-03-24T01:26:44;2.10;;;1.90;;
52266;SDS011;38223;50.940;4.034;2023-03-24T01:29:22;3.40;;;1.95;;
52266;SDS011;38223;50.940;4.034;2023-03-24T01:31:55;3.20;;;1.50;;
52266;SDS011;38223;50.940;4.034;2023-03-24T01:34:31;2.58;;;1.75;;
52266;SDS011;38223;50.940;4.034;2023-03-24T01:37:07;3.58;;;2.20;;
52266;SDS011;38223;50.940;4.034;2023-03-24T01:39:37;2.20;;;1.87;;
52266;SDS011;38223;50.940;4.034;2023-03-24T01:42:16;2.22;;;1.60;;
52266;SDS011;38223;50.940;4.034;2023-03-24T01:45:00;2.67;;;1.50;;
52266;SDS011;38223;50.940;4.034;2023-03-24T01:47:33;5.12;;;1.37;;
52266;SDS011;38223;50.940;4.034;2023-03-24T01:50:05;0.95;;;0.50;;
52266;SDS011;38223;50.940;4.034;2023-03-24T01:52:46;0.80;;;0.60;;
52266;SDS011;38223;50.940;4.034;2023-03-24T01:55:27;1.95;;;0.60;;
52266;SDS011;38223;50.940;4.034;2023-03-24T01:58:00;1.02;;;0.70;;
52266;SDS011;38223;50.940;4.034;2023-03-24T02:00:34;3.08;;;0.72;;
52266;SDS011;38223;50.940;4.034;2023-03-24T02:03:09;1.98;;;0.70;;
52266;SDS011;38223;50.940;4.034;2023-03-24T02:05:42;0.80;;;0.50;;
52266;SDS011;38223;50.940;4.034;2023-03-24T02:08:33;3.42;;;0.90;;
52266;SDS011;38223;50.940;4.034;2023-03-24T02:11:10;1.05;;;0.50;;
52266;SDS011;38223;50.940;4.034;2023-03-24T02:13:42;1.98;;;0.57;;
52266;SDS011;38223;50.940;4.034;2023-03-24T02:16:20;1.85;;;0.70;;
52266;SDS011;38223;50.940;4.034;2023-03-24T02:22:06;2.60;;;0.68;;
52266;SDS011;38223;50.940;4.034;2023-03-24T02:36:55;3.45;;;1.15;;
52266;SDS011;38223;50.940;4.034;2023-03-24T02:45:24;3.27;;;0.80;;
52266;SDS011;38223;50.940;4.034;2023-03-24T02:50:31;3.55;;;1.40;;
52266;SDS011;38223;50.940;4.034;2023-03-24T02:56:22;5.40;;;1.67;;
52266;SDS011;38223;50.940;4.034;2023-03-24T02:59:06;3.62;;;0.82;;
52266;SDS011;38223;50.940;4.034;2023-03-24T03:01:46;3.72;;;1.30;;
52266;SDS011;38223;50.940;4.034;2023-03-24T03:04:20;6.12;;;1.22;;
52266;SDS011;38223;50.940;4.034;2023-03-24T03:06:53;5.35;;;1.00;;
52266;SDS011;38223;50.940;4.034;2023-03-24T03:09:23;5.58;;;1.22;;
52266;SDS011;38223;50.940;4.034;2023-03-24T03:11:57;9.00;;;1.30;;
52266;SDS011;38223;50.940;4.034;2023-03-24T03:14:37;5.47;;;1.00;;
52266;SDS011;38223;50.940;4.034;2023-03-24T03:17:17;6.87;;;1.67;;
52266;SDS011;38223;50.940;4.034;2023-03-24T03:19:55;5.50;;;1.52;;
52266;SDS011;38223;50.940;4.034;2023-03-24T03:22:29;5.00;;;1.22;;
52266;SDS011;38223;50.940;4.034;2023-03-24T03:25:00;9.18;;;1.20;;
52266;SDS011;38223;50.940;4.034;2023-03-24T03:27:35;10.58;;;1.90;;
52266;SDS011;38223;50.940;4.034;2023-03-24T03:30:11;8.60;;;1.82;;
52266;SDS011;38223;50.940;4.034;2023-03-24T03:32:49;7.00;;;1.92;;
52266;SDS011;38223;50.940;4.034;2023-03-24T03:35:21;8.55;;;1.87;;
52266;SDS011;38223;50.940;4.034;2023-03-24T03:37:56;7.83;;;2.00;;
52266;SDS011;38223;50.940;4.034;2023-03-24T03:40:35;11.48;;;1.72;;
52266;SDS011;38223;50.940;4.034;2023-03-24T03:43:05;9.80;;;1.50;;
52266;SDS011;38223;50.940;4.034;2023-03-24T03:45:39;12.23;;;2.00;;
52266;SDS011;38223;50.940;4.034;2023-03-24T03:48:14;13.55;;;2.30;;
52266;SDS011;38223;50.940;4.034;2023-03-24T03:50:44;11.55;;;2.60;;
52266;SDS011;38223;50.940;4.034;2023-03-24T03:53:22;9.28;;;1.98;;
52266;SDS011;38223;50.940;4.034;2023-03-24T03:55:53;9.35;;;1.60;;
52266;SDS011;38223;50.940;4.034;2023-03-24T03:58:28;15.88;;;2.65;;
52266;SDS011;38223;50.940;4.034;2023-03-24T04:01:04;8.08;;;2.17;;
52266;SDS011;38223;50.940;4.034;2023-03-24T04:03:45;9.13;;;2.05;;
52266;SDS011;38223;50.940;4.034;2023-03-24T04:06:20;12.55;;;2.15;;
52266;SDS011;38223;50.940;4.034;2023-03-24T04:09:15;10.90;;;2.50;;
52266;SDS011;38223;50.940;4.034;2023-03-24T04:11:56;10.48;;;2.10;;
52266;SDS011;38223;50.940;4.034;2023-03-24T04:14:38;13.22;;;2.80;;
52266;SDS011;38223;50.940;4.034;2023-03-24T04:20:02;12.73;;;2.55;;
52266;SDS011;38223;50.940;4.034;2023-03-24T04:28:18;12.05;;;2.17;;
52266;SDS011;38223;50.940;4.034;2023-03-24T04:34:10;8.13;;;1.75;;
52266;SDS011;38223;50.940;4.034;2023-03-24T04:36:58;10.78;;;1.90;;
52266;SDS011;38223;50.940;4.034;2023-03-24T04:39:32;9.28;;;2.17;;
52266;SDS011;38223;50.940;4.034;2023-03-24T04:42:16;12.90;;;2.10;;
52266;SDS011;38223;50.940;4.034;2023-03-24T04:44:51;11.03;;;2.30;;
52266;SDS011;38223;50.940;4.034;2023-03-24T04:47:28;9.73;;;2.33;;
52266;SDS011;38223;50.940;4.034;2023-03-24T04:50:03;15.55;;;2.67;;
52266;SDS011;38223;50.940;4.034;2023-03-24T04:52:33;13.22;;;2.75;;
52266;SDS011;38223;50.940;4.034;2023-03-24T04:58:19;11.68;;;1.87;;
52266;SDS011;38223;50.940;4.034;2023-03-24T05:03:39;13.70;;;2.10;;
52266;SDS011;38223;50.940;4.034;2023-03-24T05:06:10;11.88;;;2.12;;
52266;SDS011;38223;50.940;4.034;2023-03-24T05:08:43;12.93;;;2.05;;
52266;SDS011;38223;50.940;4.034;2023-03-24T05:11:27;8.75;;;2.30;;
52266;SDS011;38223;50.940;4.034;2023-03-24T05:16:46;9.05;;;2.08;;
52266;SDS011;38223;50.940;4.034;2023-03-24T05:19:26;17.10;;;2.35;;
52266;SDS011;38223;50.940;4.034;2023-03-24T05:21:57;8.28;;;1.98;;
52266;SDS011;38223;50.940;4.034;2023-03-24T05:24:35;16.67;;;2.35;;
52266;SDS011;38223;50.940;4.034;2023-03-24T05:27:14;15.28;;;2.52;;
52266;SDS011;38223;50.940;4.034;2023-03-24T05:29:47;15.50;;;2.95;;
52266;SDS011;38223;50.940;4.034;2023-03-24T05:32:24;15.38;;;3.27;;
52266;SDS011;38223;50.940;4.034;2023-03-24T05:34:55;9.38;;;2.12;;
52266;SDS011;38223;50.940;4.034;2023-03-24T05:37:28;12.00;;;2.10;;
52266;SDS011;38223;50.940;4.034;2023-03-24T05:40:10;7.95;;;2.12;;
52266;SDS011;38223;50.940;4.034;2023-03-24T05:42:42;15.13;;;2.72;;
52266;SDS011;38223;50.940;4.034;2023-03-24T05:45:19;15.15;;;2.52;;
52266;SDS011;38223;50.940;4.034;2023-03-24T05:47:51;15.15;;;3.02;;
52266;SDS011;38223;50.940;4.034;2023-03-24T05:50:22;16.23;;;3.17;;
52266;SDS011;38223;50.940;4.034;2023-03-24T05:53:04;11.83;;;2.15;;
52266;SDS011;38223;50.940;4.034;2023-03-24T05:55:37;14.63;;;3.10;;
52266;SDS011;38223;50.940;4.034;2023-03-24T05:58:10;11.10;;;2.20;;
52266;SDS011;38223;50.940;4.034;2023-03-24T06:00:42;13.55;;;2.65;;
52266;SDS011;38223;50.940;4.034;2023-03-24T06:03:16;14.10;;;2.20;;
52266;SDS011;38223;50.940;4.034;2023-03-24T06:05:47;11.93;;;2.83;;
52266;SDS011;38223;50.940;4.034;2023-03-24T06:08:18;7.92;;;2.25;;
52266;SDS011;38223;50.940;4.034;2023-03-24T06:10:49;10.30;;;2.65;;
52266;SDS011;38223;50.940;4.034;2023-03-24T06:13:26;12.58;;;2.52;;
52266;SDS011;38223;50.940;4.034;2023-03-24T06:15:56;14.73;;;2.80;;
52266;SDS011;38223;50.940;4.034;2023-03-24T06:18:27;16.90;;;2.67;;
52266;SDS011;38223;50.940;4.034;2023-03-24T06:20:56;12.98;;;2.85;;
52266;SDS011;38223;50.940;4.034;2023-03-24T06:23:29;14.05;;;2.62;;
52266;SDS011;38223;50.940;4.034;2023-03-24T06:25:58;11.50;;;2.80;;
52266;SDS011;38223;50.940;4.034;2023-03-24T06:28:29;13.72;;;3.08;;
52266;SDS011;38223;50.940;4.034;2023-03-24T06:31:03;12.98;;;3.25;;
52266;SDS011;38223;50.940;4.034;2023-03-24T06:33:37;13.85;;;2.42;;
52266;SDS011;38223;50.940;4.034;2023-03-24T06:38:34;21.40;;;2.85;;
52266;SDS011;38223;50.940;4.034;2023-03-24T06:41:07;9.55;;;2.58;;
52266;SDS011;38223;50.940;4.034;2023-03-24T06:43:42;12.95;;;2.67;;
52266;SDS011;38223;50.940;4.034;2023-03-24T06:46:14;13.53;;;3.05;;
52266;SDS011;38223;50.940;4.034;2023-03-24T06:48:46;11.80;;;2.52;;
52266;SDS011;38223;50.940;4.034;2023-03-24T06:51:17;9.65;;;2.75;;
52266;SDS011;38223;50.940;4.034;2023-03-24T06:53:48;13.53;;;3.37;;
52266;SDS011;38223;50.940;4.034;2023-03-24T06:56:18;19.12;;;2.87;;
52266;SDS011;38223;50.940;4.034;2023-03-24T06:58:50;13.85;;;3.00;;
52266;SDS011;38223;50.940;4.034;2023-03-24T07:01:20;9.53;;;2.33;;
52266;SDS011;38223;50.940;4.034;2023-03-24T07:03:51;16.82;;;2.95;;
52266;SDS011;38223;50.940;4.034;2023-03-24T07:06:26;11.03;;;2.72;;
52266;SDS011;38223;50.940;4.034;2023-03-24T07:09:00;7.60;;;2.42;;
52266;SDS011;38223;50.940;4.034;2023-03-24T07:11:30;12.10;;;2.98;;
52266;SDS011;38223;50.940;4.034;2023-03-24T07:13:59;14.90;;;3.17;;
52266;SDS011;38223;50.940;4.034;2023-03-24T07:19:00;12.88;;;2.62;;
52266;SDS011;38223;50.940;4.034;2023-03-24T07:21:29;9.63;;;2.83;;
52266;SDS011;38223;50.940;4.034;2023-03-24T07:23:58;12.90;;;2.67;;
52266;SDS011;38223;50.940;4.034;2023-03-24T07:26:30;12.05;;;2.67;;
52266;SDS011;38223;50.940;4.034;2023-03-24T07:29:03;15.15;;;2.37;;
52266;SDS011;38223;50.940;4.034;2023-03-24T07:31:33;7.92;;;2.85;;
52266;SDS011;38223;50.940;4.034;2023-03-24T07:34:05;15.43;;;3.15;;
52266;SDS011;38223;50.940;4.034;2023-03-24T07:36:38;12.15;;;2.70;;
52266;SDS011;38223;50.940;4.034;2023-03-24T07:39:12;13.72;;;2.67;;
52266;SDS011;38223;50.940;4.034;2023-03-24T07:41:45;10.08;;;2.02;;
52266;SDS011;38223;50.940;4.034;2023-03-24T07:44:23;9.28;;;1.92;;
52266;SDS011;38223;50.940;4.034;2023-03-24T07:46:55;13.20;;;2.45;;
52266;SDS011;38223;50.940;4.034;2023-03-24T07:49:29;9.85;;;1.98;;
52266;SDS011;38223;50.940;4.034;2023-03-24T07:51:59;9.88;;;2.67;;
52266;SDS011;38223;50.940;4.034;2023-03-24T07:54:30;12.85;;;2.62;;
52266;SDS011;38223;50.940;4.034;2023-03-24T07:57:02;12.28;;;2.72;;
52266;SDS011;38223;50.940;4.034;2023-03-24T07:59:36;8.08;;;2.05;;
52266;SDS011;38223;50.940;4.034;2023-03-24T08:02:17;16.67;;;2.90;;
52266;SDS011;38223;50.940;4.034;2023-03-24T08:04:53;12.28;;;2.10;;
52266;SDS011;38223;50.940;4.034;2023-03-24T08:07:24;14.38;;;2.83;;
52266;SDS011;38223;50.940;4.034;2023-03-24T08:09:53;7.37;;;2.27;;
52266;SDS011;38223;50.940;4.034;2023-03-24T08:12:26;11.43;;;2.45;;
52266;SDS011;38223;50.940;4.034;2023-03-24T08:14:57;8.93;;;1.98;;
52266;SDS011;38223;50.940;4.034;2023-03-24T08:17:29;13.38;;;2.52;;
52266;SDS011;38223;50.940;4.034;2023-03-24T08:20:03;10.50;;;2.37;;
52266;SDS011;38223;50.940;4.034;2023-03-24T08:22:44;9.70;;;1.87;;
52266;SDS011;38223;50.940;4.034;2023-03-24T08:25:20;14.18;;;3.02;;
52266;SDS011;38223;50.940;4.034;2023-03-24T08:27:50;12.95;;;2.30;;
52266;SDS011;38223;50.940;4.034;2023-03-24T08:30:27;10.63;;;2.20;;
52266;SDS011;38223;50.940;4.034;2023-03-24T08:33:01;14.50;;;2.27;;
52266;SDS011;38223;50.940;4.034;2023-03-24T08:35:34;12.55;;;3.42;;
52266;SDS011;38223;50.940;4.034;2023-03-24T08:38:04;8.15;;;2.02;;
52266;SDS011;38223;50.940;4.034;2023-03-24T08:40:40;10.72;;;2.42;;
52266;SDS011;38223;50.940;4.034;2023-03-24T08:43:14;10.30;;;2.80;;
52266;SDS011;38223;50.940;4.034;2023-03-24T08:45:46;12.37;;;2.62;;
52266;SDS011;38223;50.940;4.034;2023-03-24T08:48:20;10.45;;;3.35;;
52266;SDS011;38223;50.940;4.034;2023-03-24T08:50:50;7.60;;;2.37;;
52266;SDS011;38223;50.940;4.034;2023-03-24T08:53:26;17.60;;;2.83;;
52266;SDS011;38223;50.940;4.034;2023-03-24T08:55:55;12.70;;;2.52;;
52266;SDS011;38223;50.940;4.034;2023-03-24T08:58:29;9.18;;;3.00;;
52266;SDS011;38223;50.940;4.034;2023-03-24T09:01:05;13.15;;;2.92;;
52266;SDS011;38223;50.940;4.034;2023-03-24T09:03:38;12.37;;;3.42;;
52266;SDS011;38223;50.940;4.034;2023-03-24T09:06:09;7.92;;;2.98;;
52266;SDS011;38223;50.940;4.034;2023-03-24T09:08:48;11.18;;;2.62;;
52266;SDS011;38223;50.940;4.034;2023-03-24T09:11:23;10.95;;;2.85;;
52266;SDS011;38223;50.940;4.034;2023-03-24T09:13:55;11.05;;;2.85;;
52266;SDS011;38223;50.940;4.034;2023-03-24T09:16:25;12.25;;;2.70;;
52266;SDS011;38223;50.940;4.034;2023-03-24T09:18:57;10.05;;;2.65;;
52266;SDS011;38223;50.940;4.034;2023-03-24T09:21:26;9.20;;;2.40;;
52266;SDS011;38223;50.940;4.034;2023-03-24T09:23:56;10.90;;;2.98;;
52266;SDS011;38223;50.940;4.034;2023-03-24T09:26:27;10.58;;;2.77;;
52266;SDS011;38223;50.940;4.034;2023-03-24T09:28:58;8.83;;;2.80;;
52266;SDS011;38223;50.940;4.034;2023-03-24T09:31:26;9.10;;;2.55;;
52266;SDS011;38223;50.940;4.034;2023-03-24T09:33:58;13.43;;;3.22;;
52266;SDS011;38223;50.940;4.034;2023-03-24T09:38:55;7.22;;;3.37;;
52266;SDS011;38223;50.940;4.034;2023-03-24T09:41:26;9.00;;;2.50;;
52266;SDS011;38223;50.940;4.034;2023-03-24T09:46:50;9.38;;;2.12;;
52266;SDS011;38223;50.940;4.034;2023-03-24T09:49:16;10.78;;;2.62;;
52266;SDS011;38223;50.940;4.034;2023-03-24T09:51:50;13.75;;;2.60;;
52266;SDS011;38223;50.940;4.034;2023-03-24T09:54:25;7.45;;;2.83;;
52266;SDS011;38223;50.940;4.034;2023-03-24T09:56:56;11.75;;;2.35;;
52266;SDS011;38223;50.940;4.034;2023-03-24T09:59:31;8.38;;;2.00;;
52266;SDS011;38223;50.940;4.034;2023-03-24T10:01:58;8.18;;;2.12;;
52266;SDS011;38223;50.940;4.034;2023-03-24T10:04:30;8.60;;;2.75;;
52266;SDS011;38223;50.940;4.034;2023-03-24T10:07:01;15.30;;;3.03;;
52266;SDS011;38223;50.940;4.034;2023-03-24T10:09:55;9.80;;;2.67;;
52266;SDS011;38223;50.940;4.034;2023-03-24T10:12:39;11.03;;;2.52;;
52266;SDS011;38223;50.940;4.034;2023-03-24T10:20:50;9.10;;;2.70;;
52266;SDS011;38223;50.940;4.034;2023-03-24T10:29:12;8.73;;;2.40;;
52266;SDS011;38223;50.940;4.034;2023-03-24T10:31:41;6.53;;;2.00;;
52266;SDS011;38223;50.940;4.034;2023-03-24T10:34:13;12.50;;;3.90;;
52266;SDS011;38223;50.940;4.034;2023-03-24T10:36:51;9.23;;;2.37;;
52266;SDS011;38223;50.940;4.034;2023-03-24T10:39:24;14.55;;;2.98;;
52266;SDS011;38223;50.940;4.034;2023-03-24T10:41:54;6.70;;;2.27;;
52266;SDS011;38223;50.940;4.034;2023-03-24T10:44:30;13.53;;;2.27;;
52266;SDS011;38223;50.940;4.034;2023-03-24T10:47:04;21.93;;;3.10;;
52266;SDS011;38223;50.940;4.034;2023-03-24T10:49:35;9.18;;;2.25;;
52266;SDS011;38223;50.940;4.034;2023-03-24T10:52:08;14.20;;;2.27;;
52266;SDS011;38223;50.940;4.034;2023-03-24T10:54:38;8.08;;;2.20;;
52266;SDS011;38223;50.940;4.034;2023-03-24T10:57:15;11.65;;;2.25;;
52266;SDS011;38223;50.940;4.034;2023-03-24T10:59:53;10.30;;;1.72;;
52266;SDS011;38223;50.940;4.034;2023-03-24T11:05:01;9.93;;;1.42;;
52266;SDS011;38223;50.940;4.034;2023-03-24T11:07:40;7.97;;;1.35;;
52266;SDS011;38223;50.940;4.034;2023-03-24T11:10:18;7.35;;;1.72;;
52266;SDS011;38223;50.940;4.034;2023-03-24T11:15:28;5.80;;;1.37;;
52266;SDS011;38223;50.940;4.034;2023-03-24T11:20:55;5.50;;;1.67;;
52266;SDS011;38223;50.940;4.034;2023-03-24T11:23:39;4.20;;;1.35;;
52266;SDS011;38223;50.940;4.034;2023-03-24T11:26:18;9.53;;;1.87;;
52266;SDS011;38223;50.940;4.034;2023-03-24T11:28:52;5.87;;;1.62;;
52266;SDS011;38223;50.940;4.034;2023-03-24T11:31:29;7.22;;;1.50;;
52266;SDS011;38223;50.940;4.034;2023-03-24T11:34:08;9.10;;;2.35;;
52266;SDS011;38223;50.940;4.034;2023-03-24T11:36:47;9.65;;;2.25;;
52266;SDS011;38223;50.940;4.034;2023-03-24T11:39:25;13.18;;;3.25;;
52266;SDS011;38223;50.940;4.034;2023-03-24T11:44:46;8.43;;;2.10;;
52266;SDS011;38223;50.940;4.034;2023-03-24T11:47:28;9.75;;;2.62;;
52266;SDS011;38223;50.940;4.034;2023-03-24T11:52:51;11.83;;;3.17;;
52266;SDS011;38223;50.940;4.034;2023-03-24T12:04:05;11.90;;;2.33;;
52266;SDS011;38223;50.940;4.034;2023-03-24T12:10:11;3.58;;;1.20;;
52266;SDS011;38223;50.940;4.034;2023-03-24T12:21:18;5.08;;;1.20;;
52266;SDS011;38223;50.940;4.034;2023-03-24T12:24:00;6.70;;;1.67;;
52266;SDS011;38223;50.940;4.034;2023-03-24T12:26:41;10.10;;;1.95;;
52266;SDS011;38223;50.940;4.034;2023-03-24T12:32:04;4.90;;;1.80;;
52266;SDS011;38223;50.940;4.034;2023-03-24T12:43:10;9.43;;;2.85;;
52266;SDS011;38223;50.940;4.034;2023-03-24T12:45:43;8.08;;;1.85;;
52266;SDS011;38223;50.940;4.034;2023-03-24T12:51:35;10.93;;;2.25;;
52266;SDS011;38223;50.940;4.034;2023-03-24T12:54:16;7.83;;;1.95;;
52266;SDS011;38223;50.940;4.034;2023-03-24T12:56:48;4.42;;;1.17;;
52266;SDS011;38223;50.940;4.034;2023-03-24T13:02:44;4.45;;;1.00;;
52266;SDS011;38223;50.940;4.034;2023-03-24T13:04:55;5.42;;;1.20;;
52266;SDS011;38223;50.940;4.034;2023-03-24T13:07:27;8.08;;;1.65;;
52266;SDS011;38223;50.940;4.034;2023-03-24T13:10:11;3.55;;;0.95;;
52266;SDS011;38223;50.940;4.034;2023-03-24T13:13:03;4.58;;;0.90;;
52266;SDS011;38223;50.940;4.034;2023-03-24T13:15:45;3.55;;;1.07;;
52266;SDS011;38223;50.940;4.034;2023-03-24T13:33:13;4.55;;;1.60;;
52266;SDS011;38223;50.940;4.034;2023-03-24T13:35:11;3.85;;;1.27;;
52266;SDS011;38223;50.940;4.034;2023-03-24T13:38:20;5.47;;;0.90;;
52266;SDS011;38223;50.940;4.034;2023-03-24T13:40:52;4.90;;;1.22;;
52266;SDS011;38223;50.940;4.034;2023-03-24T13:43:28;6.45;;;1.20;;
52266;SDS011;38223;50.940;4.034;2023-03-24T13:45:58;5.47;;;1.12;;
52266;SDS011;38223;50.940;4.034;2023-03-24T13:53:50;6.47;;;1.70;;
52266;SDS011;38223;50.940;4.034;2023-03-24T13:56:30;7.58;;;1.35;;
52266;SDS011;38223;50.940;4.034;2023-03-24T13:59:16;5.20;;;1.10;;
52266;SDS011;38223;50.940;4.034;2023-03-24T14:01:40;9.00;;;1.75;;
52266;SDS011;38223;50.940;4.034;2023-03-24T14:06:54;6.37;;;1.35;;
52266;SDS011;38223;50.940;4.034;2023-03-24T14:23:46;3.42;;;0.80;;
52266;SDS011;38223;50.940;4.034;2023-03-24T14:28:54;5.00;;;1.15;;
52266;SDS011;38223;50.940;4.034;2023-03-24T14:31:27;7.43;;;1.40;;
52266;SDS011;38223;50.940;4.034;2023-03-24T14:33:59;5.12;;;0.80;;
52266;SDS011;38223;50.940;4.034;2023-03-24T14:36:43;4.80;;;1.05;;
52266;SDS011;38223;50.940;4.034;2023-03-24T14:42:00;4.58;;;1.15;;
52266;SDS011;38223;50.940;4.034;2023-03-24T14:47:24;5.55;;;1.45;;
52266;SDS011;38223;50.940;4.034;2023-03-24T14:50:16;5.70;;;1.67;;
52266;SDS011;38223;50.940;4.034;2023-03-24T14:52:56;7.28;;;1.35;;
52266;SDS011;38223;50.940;4.034;2023-03-24T14:55:20;11.18;;;1.37;;
52266;SDS011;38223;50.940;4.034;2023-03-24T14:57:56;4.70;;;1.10;;
52266;SDS011;38223;50.940;4.034;2023-03-24T15:00:34;4.72;;;1.32;;
52266;SDS011;38223;50.940;4.034;2023-03-24T15:03:32;5.12;;;1.17;;
52266;SDS011;38223;50.940;4.034;2023-03-24T15:06:16;4.92;;;1.37;;
52266;SDS011;38223;50.940;4.034;2023-03-24T15:08:53;4.55;;;1.55;;
52266;SDS011;38223;50.940;4.034;2023-03-24T15:11:28;3.47;;;0.95;;
52266;SDS011;38223;50.940;4.034;2023-03-24T15:13:59;4.87;;;1.42;;
52266;SDS011;38223;50.940;4.034;2023-03-24T15:16:33;4.83;;;1.30;;
52266;SDS011;38223;50.940;4.034;2023-03-24T15:19:07;5.67;;;1.22;;
52266;SDS011;38223;50.940;4.034;2023-03-24T15:21:58;5.42;;;1.50;;
52266;SDS011;38223;50.940;4.034;2023-03-24T15:29:42;6.20;;;1.32;;
52266;SDS011;38223;50.940;4.034;2023-03-24T15:32:17;2.22;;;0.90;;
52266;SDS011;38223;50.940;4.034;2023-03-24T15:34:47;5.12;;;1.20;;
52266;SDS011;38223;50.940;4.034;2023-03-24T15:37:29;4.78;;;1.32;;
52266;SDS011;38223;50.940;4.034;2023-03-24T15:40:02;5.25;;;1.25;;
52266;SDS011;38223;50.940;4.034;2023-03-24T15:42:37;5.28;;;1.05;;
52266;SDS011;38223;50.940;4.034;2023-03-24T15:45:22;7.92;;;1.40;;
52266;SDS011;38223;50.940;4.034;2023-03-24T15:47:52;3.55;;;0.90;;
52266;SDS011;38223;50.940;4.034;2023-03-24T15:53:19;5.12;;;0.93;;
52266;SDS011;38223;50.940;4.034;2023-03-24T15:55:45;3.87;;;0.95;;
52266;SDS011;38223;50.940;4.034;2023-03-24T15:58:21;4.37;;;1.10;;
52266;SDS011;38223;50.940;4.034;2023-03-24T16:00:58;5.22;;;1.47;;
52266;SDS011;38223;50.940;4.034;2023-03-24T16:03:31;5.58;;;1.40;;
52266;SDS011;38223;50.940;4.034;2023-03-24T16:06:00;4.00;;;0.90;;
52266;SDS011;38223;50.940;4.034;2023-03-24T16:08:31;6.03;;;1.30;;
52266;SDS011;38223;50.940;4.034;2023-03-24T16:11:01;4.67;;;1.22;;
52266;SDS011;38223;50.940;4.034;2023-03-24T16:13:37;4.17;;;1.30;;
52266;SDS011;38223;50.940;4.034;2023-03-24T16:18:46;3.40;;;1.00;;
52266;SDS011;38223;50.940;4.034;2023-03-24T16:23:49;5.40;;;1.07;;
52266;SDS011;38223;50.940;4.034;2023-03-24T16:26:21;3.52;;;1.02;;
52266;SDS011;38223;50.940;4.034;2023-03-24T16:28:58;5.00;;;1.07;;
52266;SDS011;38223;50.940;4.034;2023-03-24T16:31:46;4.80;;;1.00;;
52266;SDS011;38223;50.940;4.034;2023-03-24T16:34:14;4.87;;;1.30;;
52266;SDS011;38223;50.940;4.034;2023-03-24T16:36:44;10.43;;;1.42;;
52266;SDS011;38223;50.940;4.034;2023-03-24T16:39:15;5.45;;;1.12;;
52266;SDS011;38223;50.940;4.034;2023-03-24T16:41:46;2.80;;;1.15;;
52266;SDS011;38223;50.940;4.034;2023-03-24T16:44:19;5.80;;;1.70;;
52266;SDS011;38223;50.940;4.034;2023-03-24T16:46:50;4.90;;;1.57;;
52266;SDS011;38223;50.940;4.034;2023-03-24T16:49:22;5.97;;;1.80;;
52266;SDS011;38223;50.940;4.034;2023-03-24T16:51:57;4.17;;;1.22;;
52266;SDS011;38223;50.940;4.034;2023-03-24T16:54:26;5.60;;;1.20;;
52266;SDS011;38223;50.940;4.034;2023-03-24T16:56:59;6.90;;;1.60;;
52266;SDS011;38223;50.940;4.034;2023-03-24T16:59:28;3.15;;;1.05;;
52266;SDS011;38223;50.940;4.034;2023-03-24T17:02:02;5.25;;;1.30;;
52266;SDS011;38223;50.940;4.034;2023-03-24T17:04:30;3.83;;;1.40;;
52266;SDS011;38223;50.940;4.034;2023-03-24T17:06:59;4.92;;;1.32;;
52266;SDS011;38223;50.940;4.034;2023-03-24T17:09:27;4.33;;;1.42;;
52266;SDS011;38223;50.940;4.034;2023-03-24T17:11:56;4.30;;;1.20;;
52266;SDS011;38223;50.940;4.034;2023-03-24T17:14:26;4.22;;;1.05;;
52266;SDS011;38223;50.940;4.034;2023-03-24T17:16:58;4.70;;;1.30;;
52266;SDS011;38223;50.940;4.034;2023-03-24T17:22:04;3.52;;;1.20;;
52266;SDS011;38223;50.940;4.034;2023-03-24T17:24:32;3.72;;;1.40;;
52266;SDS011;38223;50.940;4.034;2023-03-24T17:27:09;5.95;;;1.35;;
52266;SDS011;38223;50.940;4.034;2023-03-24T17:29:38;3.27;;;1.02;;
52266;SDS011;38223;50.940;4.034;2023-03-24T17:32:08;2.22;;;0.72;;
52266;SDS011;38223;50.940;4.034;2023-03-24T17:34:36;3.25;;;0.98;;
52266;SDS011;38223;50.940;4.034;2023-03-24T17:37:04;2.47;;;1.00;;
52266;SDS011;38223;50.940;4.034;2023-03-24T17:39:31;1.92;;;0.78;;
52266;SDS011;38223;50.940;4.034;2023-03-24T17:42:01;3.67;;;1.00;;
52266;SDS011;38223;50.940;4.034;2023-03-24T17:44:33;3.10;;;0.90;;
52266;SDS011;38223;50.940;4.034;2023-03-24T17:47:00;4.47;;;1.20;;
52266;SDS011;38223;50.940;4.034;2023-03-24T17:49:28;3.58;;;1.00;;
52266;SDS011;38223;50.940;4.034;2023-03-24T17:51:58;3.17;;;1.30;;
52266;SDS011;38223;50.940;4.034;2023-03-24T17:54:25;2.62;;;0.98;;
52266;SDS011;38223;50.940;4.034;2023-03-24T17:56:58;3.33;;;0.90;;
52266;SDS011;38223;50.940;4.034;2023-03-24T17:59:29;4.45;;;1.10;;
52266;SDS011;38223;50.940;4.034;2023-03-24T18:02:00;2.35;;;1.17;;
52266;SDS011;38223;50.940;4.034;2023-03-24T18:04:35;3.70;;;1.20;;
52266;SDS011;38223;50.940;4.034;2023-03-24T18:07:05;5.72;;;1.70;;
52266;SDS011;38223;50.940;4.034;2023-03-24T18:09:34;2.43;;;1.20;;
52266;SDS011;38223;50.940;4.034;2023-03-24T18:12:04;2.87;;;0.80;;
52266;SDS011;38223;50.940;4.034;2023-03-24T18:14:35;3.95;;;1.12;;
52266;SDS011;38223;50.940;4.034;2023-03-24T18:17:06;4.50;;;1.22;;
52266;SDS011;38223;50.940;4.034;2023-03-24T18:19:34;3.50;;;0.90;;
52266;SDS011;38223;50.940;4.034;2023-03-24T18:22:03;4.35;;;0.90;;
52266;SDS011;38223;50.940;4.034;2023-03-24T18:24:31;2.37;;;1.17;;
52266;SDS011;38223;50.940;4.034;2023-03-24T18:26:58;5.62;;;2.20;;